createdAt,value
2022-10-02T00:01:34.297Z,101406.00
2022-10-02T00:04:01.563Z,101412.22
2022-10-02T00:06:38.951Z,101426.44
2022-10-02T00:09:08.181Z,101440.50
2022-10-02T00:11:44.080Z,101436.69
2022-10-02T00:14:16.105Z,101436.69
2022-10-02T00:16:47.398Z,101435.50
2022-10-02T00:19:17.303Z,101441.50
2022-10-02T00:22:26.133Z,101439.09
2022-10-02T00:25:15.711Z,101444.84
2022-10-02T00:28:04.085Z,101438.25
2022-10-02T00:30:55.475Z,101442.16
2022-10-02T00:33:53.821Z,101446.94
2022-10-02T00:36:39.185Z,101448.47
2022-10-02T00:39:45.049Z,101450.22
2022-10-02T00:42:27.606Z,101465.97
2022-10-02T00:45:20.764Z,101461.09
2022-10-02T00:48:16.070Z,101456.75
2022-10-02T00:51:03.252Z,101452.16
2022-10-02T00:53:29.620Z,101464.47
2022-10-02T00:56:12.598Z,101468.47
2022-10-02T00:59:20.505Z,101472.59
2022-10-02T01:02:32.199Z,101463.69
2022-10-02T01:05:02.226Z,101461.94
2022-10-02T01:07:28.970Z,101457.06
2022-10-02T01:09:55.646Z,101459.69
2022-10-02T01:12:23.034Z,101467.50
2022-10-02T01:14:49.603Z,101456.75
2022-10-02T01:17:24.228Z,101450.22
2022-10-02T01:19:51.358Z,101455.63
2022-10-02T01:22:36.189Z,101475.09
2022-10-02T01:25:05.480Z,101462.94
2022-10-02T01:27:36.640Z,101468.59
2022-10-02T01:30:10.691Z,101462.19
2022-10-02T01:32:41.371Z,101469.34
2022-10-02T01:35:08.534Z,101459.34
2022-10-02T01:37:39.212Z,101463.56
2022-10-02T01:40:09.839Z,101457.38
2022-10-02T01:42:39.178Z,101466.94
2022-10-02T01:45:07.940Z,101468.78
2022-10-02T01:47:55.985Z,101469.97
2022-10-02T01:50:47.955Z,101478.75
2022-10-02T01:53:23.246Z,101472.78
2022-10-02T01:56:03.555Z,101479.06
2022-10-02T01:58:46.463Z,101468.22
2022-10-02T02:01:57.697Z,101472.56
2022-10-02T02:04:29.636Z,101476.66
2022-10-02T02:07:12.992Z,101471.59
2022-10-02T02:09:49.084Z,101467.31
2022-10-02T02:12:32.572Z,101472.97
2022-10-02T02:15:06.737Z,101475.38
2022-10-02T02:17:45.473Z,101476.25
2022-10-02T02:20:18.362Z,101486.06
2022-10-02T02:22:49.196Z,101481.94
2022-10-02T02:25:22.260Z,101482.56
2022-10-02T02:27:53.111Z,101477.13
2022-10-02T02:30:21.717Z,101479.63
2022-10-02T02:32:54.067Z,101482.72
2022-10-02T02:35:27.769Z,101471.91
2022-10-02T02:38:02.472Z,101485.84
2022-10-02T02:40:32.704Z,101476.59
2022-10-02T02:43:06.939Z,101472.78
2022-10-02T02:45:50.021Z,101480.03
2022-10-02T02:48:23.105Z,101479.97
2022-10-02T02:50:53.362Z,101479.59
2022-10-02T02:53:35.623Z,101485.63
2022-10-02T02:56:05.702Z,101479.06
2022-10-02T02:58:46.578Z,101478.88
2022-10-02T03:01:13.379Z,101487.34
2022-10-02T03:03:40.000Z,101483.13
2022-10-02T03:06:26.443Z,101487.38
2022-10-02T03:08:54.170Z,101487.91
2022-10-02T03:11:38.025Z,101484.59
2022-10-02T03:14:29.341Z,101480.97
2022-10-02T03:17:13.076Z,101485.09
2022-10-02T03:20:16.995Z,101482.16
2022-10-02T03:23:03.515Z,101488.69
2022-10-02T03:25:42.818Z,101492.81
2022-10-02T03:28:37.289Z,101480.84
2022-10-02T03:31:06.777Z,101489.03
2022-10-02T03:33:36.510Z,101482.50
2022-10-02T03:36:04.311Z,101491.28
2022-10-02T03:38:32.530Z,101502.50
2022-10-02T03:40:58.927Z,101492.47
2022-10-02T03:43:29.260Z,101500.88
2022-10-02T03:45:56.870Z,101506.88
2022-10-02T03:48:23.625Z,101498.25
2022-10-02T03:50:53.316Z,101504.25
2022-10-02T03:53:22.340Z,101505.63
2022-10-02T03:56:07.843Z,101508.69
2022-10-02T03:58:37.775Z,101509.78
2022-10-02T04:01:26.973Z,101512.69
2022-10-02T04:04:04.392Z,101511.94
2022-10-02T04:06:45.929Z,101515.22
2022-10-02T04:09:14.963Z,101519.59
2022-10-02T04:11:48.387Z,101515.56
2022-10-02T04:14:27.758Z,101523.03
2022-10-02T04:17:02.781Z,101523.56
2022-10-02T04:19:44.443Z,101523.25
2022-10-02T04:22:26.315Z,101518.25
2022-10-02T04:25:02.822Z,101513.69
2022-10-02T04:27:40.527Z,101507.81
2022-10-02T04:30:10.923Z,101506.28
2022-10-02T04:32:37.961Z,101505.84
2022-10-02T04:35:37.720Z,101511.59
2022-10-02T04:38:04.122Z,101514.28
2022-10-02T04:41:03.904Z,101515.72
2022-10-02T04:43:39.454Z,101517.56
2022-10-02T04:46:20.512Z,101523.09
2022-10-02T04:49:18.318Z,101519.16
2022-10-02T04:52:13.189Z,101536.00
2022-10-02T04:54:52.591Z,101531.53
2022-10-02T04:57:37.227Z,101533.28
2022-10-02T05:00:06.948Z,101544.56
2022-10-02T05:02:52.870Z,101540.66
2022-10-02T05:05:38.136Z,101537.59
2022-10-02T05:08:12.115Z,101536.50
2022-10-02T05:10:59.502Z,101534.44
2022-10-02T05:13:31.944Z,101539.66
2022-10-02T05:16:07.365Z,101538.97
2022-10-02T05:18:42.860Z,101544.50
2022-10-02T05:21:17.630Z,101549.72
2022-10-02T05:23:50.181Z,101551.84
2022-10-02T05:26:48.670Z,101566.91
2022-10-02T05:29:42.479Z,101578.84
2022-10-02T05:32:46.410Z,101574.53
2022-10-02T05:35:42.789Z,101584.06
2022-10-02T05:38:36.092Z,101578.22
2022-10-02T05:41:31.593Z,101585.59
2022-10-02T05:44:04.358Z,101589.72
2022-10-02T05:46:37.203Z,101587.44
2022-10-02T05:49:14.787Z,101587.06
2022-10-02T05:51:53.614Z,101588.44
2022-10-02T05:54:25.358Z,101594.34
2022-10-02T05:57:00.370Z,101610.03
2022-10-02T05:59:42.347Z,101613.16
2022-10-02T06:02:21.119Z,101603.69
2022-10-02T06:04:57.840Z,101603.63
2022-10-02T06:07:26.075Z,101591.25
2022-10-02T06:10:00.139Z,101596.81
2022-10-02T06:12:35.345Z,101598.28
2022-10-02T06:15:08.109Z,101599.63
2022-10-02T06:17:42.144Z,101601.22
2022-10-02T06:20:14.846Z,101606.56
2022-10-02T06:22:53.878Z,101610.50
2022-10-02T06:25:27.695Z,101615.56
2022-10-02T06:28:13.636Z,101612.41
2022-10-02T06:30:47.538Z,101609.53
2022-10-02T06:33:23.490Z,101606.56
2022-10-02T06:35:51.515Z,101610.03
2022-10-02T06:38:43.727Z,101620.41
2022-10-02T06:41:20.491Z,101624.03
2022-10-02T06:43:49.846Z,101626.66
2022-10-02T06:46:27.125Z,101627.00
2022-10-02T06:49:04.001Z,101633.22
2022-10-02T06:51:38.651Z,101644.72
2022-10-02T06:54:20.318Z,101634.66
2022-10-02T06:57:16.727Z,101652.19
2022-10-02T07:00:05.755Z,101654.44
2022-10-02T07:02:51.554Z,101656.47
2022-10-02T07:05:45.744Z,101658.44
2022-10-02T07:08:42.060Z,101668.13
2022-10-02T07:11:18.311Z,101671.41
2022-10-02T07:14:13.669Z,101676.88
2022-10-02T07:17:00.765Z,101674.47
2022-10-02T07:19:43.082Z,101677.31
2022-10-02T07:22:51.404Z,101680.56
2022-10-02T07:25:55.414Z,101689.41
2022-10-02T07:28:51.278Z,101693.28
2022-10-02T07:31:20.836Z,101690.66
2022-10-02T07:34:02.573Z,101699.56
2022-10-02T07:36:53.736Z,101704.47
2022-10-02T07:39:54.259Z,101707.59
2022-10-02T07:42:34.327Z,101712.94
2022-10-02T07:45:19.445Z,101719.38
2022-10-02T07:47:55.118Z,101720.09
2022-10-02T07:50:38.649Z,101725.97
2022-10-02T07:53:15.931Z,101712.34
2022-10-02T07:55:44.625Z,101717.00
2022-10-02T07:58:19.176Z,101716.53
2022-10-02T08:00:50.263Z,101716.19
2022-10-02T08:03:22.765Z,101723.47
2022-10-02T08:05:55.302Z,101719.84
2022-10-02T08:08:24.814Z,101716.84
2022-10-02T08:11:17.254Z,101715.56
2022-10-02T08:13:49.984Z,101729.69
2022-10-02T08:16:23.303Z,101726.66
2022-10-02T08:18:59.553Z,101737.06
2022-10-02T08:21:26.265Z,101740.41
2022-10-02T08:24:14.739Z,101742.13
2022-10-02T08:26:47.646Z,101745.16
2022-10-02T08:29:21.386Z,101738.97
2022-10-02T08:31:51.398Z,101750.06
2022-10-02T08:34:21.057Z,101742.53
2022-10-02T08:36:59.526Z,101753.94
2022-10-02T08:39:31.328Z,101755.28
2022-10-02T08:42:24.913Z,101761.81
2022-10-02T08:45:35.599Z,101763.41
2022-10-02T08:48:40.854Z,101772.78
2022-10-02T08:51:07.814Z,101771.25
2022-10-02T08:53:40.452Z,101774.59
2022-10-02T08:56:23.181Z,101771.06
2022-10-02T08:59:01.777Z,101782.75
2022-10-02T09:01:50.877Z,101778.94
2022-10-02T09:04:41.851Z,101778.72
2022-10-02T09:07:45.601Z,101775.47
2022-10-02T09:11:04.477Z,101780.13
2022-10-02T09:13:46.456Z,101782.16
2022-10-02T09:16:31.767Z,101784.44
2022-10-02T09:19:27.512Z,101783.03
2022-10-02T09:21:59.730Z,101786.91
2022-10-02T09:24:53.606Z,101789.41
2022-10-02T09:27:41.812Z,101777.19
2022-10-02T09:30:31.905Z,101792.44
2022-10-02T09:33:17.132Z,101781.44
2022-10-02T09:36:14.970Z,101791.63
2022-10-02T09:38:58.888Z,101790.69
2022-10-02T09:41:25.378Z,101795.63
2022-10-02T09:44:19.664Z,101800.25
2022-10-02T09:46:58.269Z,101797.31
2022-10-02T09:49:46.521Z,101806.41
2022-10-02T09:52:31.359Z,101802.84
2022-10-02T09:55:36.849Z,101801.31
2022-10-02T09:58:23.707Z,101802.44
2022-10-02T10:00:51.898Z,101804.09
2022-10-02T10:03:58.916Z,101801.97
2022-10-02T10:06:34.830Z,101807.25
2022-10-02T10:09:01.442Z,101819.44
2022-10-02T10:11:47.886Z,101806.28
2022-10-02T10:14:58.441Z,101822.97
2022-10-02T10:17:48.368Z,101819.56
2022-10-02T10:20:34.375Z,101817.06
2022-10-02T10:23:20.620Z,101822.53
2022-10-02T10:26:11.710Z,101818.69
2022-10-02T10:28:51.276Z,101819.47
2022-10-02T10:31:45.683Z,101813.81
2022-10-02T10:34:30.493Z,101826.72
2022-10-02T10:37:32.299Z,101832.84
2022-10-02T10:40:38.529Z,101838.06
2022-10-02T10:43:32.122Z,101836.03
2022-10-02T10:46:35.630Z,101841.09
2022-10-02T10:49:30.542Z,101850.22
2022-10-02T10:52:25.251Z,101848.03
2022-10-02T10:55:13.447Z,101855.97
2022-10-02T10:58:07.547Z,101851.03
2022-10-02T11:01:07.045Z,101863.66
2022-10-02T11:03:59.807Z,101863.72
2022-10-02T11:06:35.764Z,101872.50
2022-10-02T11:09:29.620Z,101869.72
2022-10-02T11:12:17.885Z,101872.84
2022-10-02T11:15:23.412Z,101880.44
2022-10-02T11:18:00.802Z,101866.88
2022-10-02T11:20:36.854Z,101868.31
2022-10-02T11:23:23.294Z,101881.53
2022-10-02T11:26:01.728Z,101875.56
2022-10-02T11:29:00.231Z,101879.47
2022-10-02T11:31:33.078Z,101881.00
2022-10-02T11:34:28.519Z,101885.44
2022-10-02T11:37:12.662Z,101894.47
2022-10-02T11:39:57.316Z,101913.75
2022-10-02T11:42:42.112Z,101909.34
2022-10-02T11:45:30.284Z,101902.31
2022-10-02T11:48:21.818Z,101894.97
2022-10-02T11:51:33.380Z,101901.78
2022-10-02T11:54:11.819Z,101898.34
2022-10-02T11:57:00.540Z,101902.50
2022-10-02T12:00:08.746Z,101889.22
2022-10-02T12:02:45.234Z,101904.69
2022-10-02T12:05:53.527Z,101909.75
2022-10-02T12:08:34.283Z,101919.41
2022-10-02T12:11:42.135Z,101921.75
2022-10-02T12:14:26.166Z,101918.59
2022-10-02T12:16:57.816Z,101924.41
2022-10-02T12:19:39.739Z,101927.69
2022-10-02T12:22:57.378Z,101926.53
2022-10-02T12:26:13.544Z,101933.88
2022-10-02T12:29:12.872Z,101935.25
2022-10-02T12:31:53.100Z,101934.22
2022-10-02T12:35:18.017Z,101937.34
2022-10-02T12:37:53.359Z,101938.81
2022-10-02T12:40:30.411Z,101940.22
2022-10-02T12:43:50.633Z,101942.88
2022-10-02T12:46:47.018Z,101948.53
2022-10-02T12:50:11.803Z,101945.06
2022-10-02T12:52:50.202Z,101944.38
2022-10-02T12:55:25.678Z,101934.09
2022-10-02T12:58:11.061Z,101933.56
2022-10-02T13:01:05.196Z,101934.34
2022-10-02T13:03:56.134Z,101937.00
2022-10-02T13:06:29.760Z,101939.63
2022-10-02T13:09:06.195Z,101943.72
2022-10-02T13:11:36.014Z,101945.31
2022-10-02T13:14:42.032Z,101945.66
2022-10-02T13:17:24.748Z,101943.00
2022-10-02T13:20:11.505Z,101937.34
2022-10-02T13:22:43.380Z,101947.47
2022-10-02T13:25:36.390Z,101955.13
2022-10-02T13:28:13.729Z,101957.75
2022-10-02T13:30:54.251Z,101961.16
2022-10-02T13:33:42.786Z,101959.66
2022-10-02T13:36:40.112Z,101963.78
2022-10-02T13:39:16.937Z,101958.88
2022-10-02T13:41:52.064Z,101956.25
2022-10-02T13:44:34.014Z,101957.63
2022-10-02T13:47:17.524Z,101959.63
2022-10-02T13:50:17.767Z,101961.50
2022-10-02T13:53:08.564Z,101972.13
2022-10-02T13:55:47.129Z,101975.09
2022-10-02T13:58:27.654Z,101980.03
2022-10-02T14:01:06.049Z,101972.31
2022-10-02T14:03:58.792Z,101979.22
2022-10-02T14:06:38.367Z,101986.78
2022-10-02T14:09:26.702Z,101986.06
2022-10-02T14:12:03.507Z,101990.16
2022-10-02T14:14:36.458Z,101983.09
2022-10-02T14:17:21.862Z,101995.47
2022-10-02T14:19:54.780Z,101993.56
2022-10-02T14:22:37.185Z,101997.59
2022-10-02T14:25:20.427Z,101991.97
2022-10-02T14:28:05.810Z,102001.56
2022-10-02T14:30:41.418Z,102004.13
2022-10-02T14:33:32.811Z,102004.25
2022-10-02T14:35:59.329Z,101995.94
2022-10-02T14:38:44.378Z,102005.41
2022-10-02T14:41:33.034Z,102011.03
2022-10-02T14:44:23.313Z,102011.63
2022-10-02T14:47:15.328Z,102004.50
2022-10-02T14:49:51.223Z,102012.28
2022-10-02T14:52:26.541Z,102020.09
2022-10-02T14:55:28.348Z,102017.56
2022-10-02T14:57:57.869Z,102023.00
2022-10-02T15:00:25.744Z,102021.47
2022-10-02T15:03:17.196Z,102020.56
2022-10-02T15:05:57.732Z,102027.88
2022-10-02T15:08:42.883Z,102030.38
2022-10-02T15:11:22.143Z,102035.16
2022-10-02T15:14:01.932Z,102031.41
2022-10-02T15:17:29.092Z,102035.06
2022-10-02T15:20:11.249Z,102042.25
2022-10-02T15:22:46.646Z,102055.22
2022-10-02T15:25:18.270Z,102041.88
2022-10-02T15:27:48.209Z,102055.72
2022-10-02T15:30:22.799Z,102052.50
2022-10-02T15:33:11.360Z,102067.25
2022-10-02T15:35:54.222Z,102061.59
2022-10-02T15:38:58.278Z,102063.88
2022-10-02T15:41:43.576Z,102065.03
2022-10-02T15:44:20.996Z,102078.69
2022-10-02T15:47:09.385Z,102078.84
2022-10-02T15:49:36.743Z,102093.28
2022-10-02T15:52:38.585Z,102097.09
2022-10-02T15:55:42.531Z,102096.41
2022-10-02T15:58:34.246Z,102102.41
2022-10-02T16:01:20.034Z,102108.28
2022-10-02T16:03:53.255Z,102115.09
2022-10-02T16:06:24.400Z,102112.06
2022-10-02T16:09:25.198Z,102118.72
2022-10-02T16:12:17.894Z,102118.28
2022-10-02T16:15:25.731Z,102136.69
2022-10-02T16:18:23.149Z,102135.31
2022-10-02T16:20:52.558Z,102142.16
2022-10-02T16:24:02.289Z,102142.56
2022-10-02T16:27:03.855Z,102148.25
2022-10-02T16:29:59.786Z,102151.69
2022-10-02T16:32:36.790Z,102155.00
2022-10-02T16:36:02.566Z,102160.59
2022-10-02T16:38:48.097Z,102168.84
2022-10-02T16:41:28.542Z,102175.53
2022-10-02T16:44:24.764Z,102183.13
2022-10-02T16:46:57.911Z,102181.75
2022-10-02T16:49:48.875Z,102194.16
2022-10-02T16:52:30.082Z,102193.94
2022-10-02T16:55:23.906Z,102202.69
2022-10-02T16:58:01.049Z,102202.88
2022-10-02T17:00:37.408Z,102208.00
2022-10-02T17:03:20.738Z,102215.13
2022-10-02T17:06:00.002Z,102216.25
2022-10-02T17:08:30.724Z,102222.41
2022-10-02T17:11:21.795Z,102220.44
2022-10-02T17:14:16.502Z,102235.13
2022-10-02T17:17:25.203Z,102224.28
2022-10-02T17:20:13.389Z,102233.28
2022-10-02T17:22:56.872Z,102246.09
2022-10-02T17:25:26.960Z,102255.25
2022-10-02T17:28:19.683Z,102257.72
2022-10-02T17:30:54.599Z,102264.88
2022-10-02T17:33:22.294Z,102266.72
2022-10-02T17:35:57.170Z,102260.41
2022-10-02T17:38:40.572Z,102276.69
2022-10-02T17:41:31.854Z,102283.50
2022-10-02T17:44:22.430Z,102292.00
2022-10-02T17:47:25.674Z,102298.34
2022-10-02T17:50:22.864Z,102302.56
2022-10-02T17:53:28.922Z,102308.41
2022-10-02T17:56:28.940Z,102308.44
2022-10-02T17:59:05.576Z,102301.47
2022-10-02T18:01:32.303Z,102305.41
2022-10-02T18:04:22.247Z,102309.34
2022-10-02T18:07:06.989Z,102318.69
2022-10-02T18:09:45.691Z,102319.38
2022-10-02T18:12:26.992Z,102328.66
2022-10-02T18:15:31.512Z,102334.25
2022-10-02T18:18:24.076Z,102327.69
2022-10-02T18:21:04.553Z,102333.16
2022-10-02T18:23:44.797Z,102335.78
2022-10-02T18:26:34.534Z,102349.31
2022-10-02T18:29:06.373Z,102347.38
2022-10-02T18:31:55.157Z,102347.88
2022-10-02T18:34:43.750Z,102350.06
2022-10-02T18:37:25.919Z,102351.72
2022-10-02T18:40:27.716Z,102357.50
2022-10-02T18:43:16.125Z,102357.56
2022-10-02T18:46:21.423Z,102349.78
2022-10-02T18:49:20.389Z,102348.66
2022-10-02T18:52:05.910Z,102365.81
2022-10-02T18:54:41.811Z,102363.41
2022-10-02T18:57:08.392Z,102365.31
2022-10-02T18:59:50.114Z,102362.88
2022-10-02T19:02:26.407Z,102372.34
2022-10-02T19:05:12.462Z,102376.59
2022-10-02T19:07:45.797Z,102379.25
2022-10-02T19:10:23.238Z,102375.75
2022-10-02T19:12:53.724Z,102378.88
2022-10-02T19:15:27.199Z,102375.25
2022-10-02T19:18:02.638Z,102388.81
2022-10-02T19:21:00.203Z,102398.13
2022-10-02T19:23:29.107Z,102390.75
2022-10-02T19:25:58.501Z,102399.09
2022-10-02T19:28:29.301Z,102401.88
2022-10-02T19:31:00.740Z,102405.44
2022-10-02T19:33:41.614Z,102403.31
2022-10-02T19:36:16.382Z,102414.09
2022-10-02T19:38:45.534Z,102408.13
2022-10-02T19:41:13.857Z,102416.47
2022-10-02T19:44:07.083Z,102416.94
2022-10-02T19:46:50.500Z,102424.47
2022-10-02T19:49:39.491Z,102426.78
2022-10-02T19:52:43.742Z,102436.19
2022-10-02T19:55:27.412Z,102442.50
2022-10-02T19:57:59.360Z,102436.81
2022-10-02T20:00:26.893Z,102445.09
2022-10-02T20:02:59.657Z,102446.66
2022-10-02T20:05:33.754Z,102441.75
2022-10-02T20:08:06.997Z,102448.16
2022-10-02T20:10:50.353Z,102453.25
2022-10-02T20:13:37.693Z,102450.31
2022-10-02T20:16:42.512Z,102443.84
2022-10-02T20:19:24.856Z,102452.59
2022-10-02T20:21:55.117Z,102454.88
2022-10-02T20:24:41.564Z,102447.50
2022-10-02T20:27:39.347Z,102448.09
2022-10-02T20:30:15.227Z,102451.94
2022-10-02T20:33:06.635Z,102445.63
2022-10-02T20:35:48.119Z,102459.41
2022-10-02T20:38:32.334Z,102468.16
2022-10-02T20:41:07.239Z,102467.66
2022-10-02T20:43:42.405Z,102471.13
2022-10-02T20:46:27.453Z,102480.34
2022-10-02T20:49:08.151Z,102487.53
2022-10-02T20:51:58.551Z,102492.09
2022-10-02T20:54:56.537Z,102491.91
2022-10-02T20:57:49.549Z,102498.50
2022-10-02T21:00:25.097Z,102491.88
2022-10-02T21:03:03.778Z,102501.06
2022-10-02T21:06:02.535Z,102516.81
2022-10-02T21:08:47.863Z,102521.84
2022-10-02T21:12:03.143Z,102530.88
2022-10-02T21:15:11.946Z,102528.81
2022-10-02T21:17:50.574Z,102528.97
2022-10-02T21:20:51.989Z,102538.13
2022-10-02T21:23:32.904Z,102535.63
2022-10-02T21:26:05.318Z,102540.56
2022-10-02T21:28:59.854Z,102543.50
2022-10-02T21:31:29.297Z,102542.03
2022-10-02T21:34:15.996Z,102540.59
2022-10-02T21:36:49.786Z,102544.84
2022-10-02T21:39:45.770Z,102554.50
2022-10-02T21:42:35.200Z,102547.97
2022-10-02T21:45:41.286Z,102541.13
2022-10-02T21:48:26.606Z,102557.41
2022-10-02T21:51:38.646Z,102566.84
2022-10-02T21:54:28.645Z,102567.94
2022-10-02T21:57:18.289Z,102576.88
2022-10-02T22:00:07.399Z,102575.38
2022-10-02T22:02:49.256Z,102581.72
2022-10-02T22:05:42.370Z,102572.34
2022-10-02T22:08:15.675Z,102587.31
2022-10-02T22:10:55.362Z,102591.75
2022-10-02T22:13:36.013Z,102586.06
2022-10-02T22:16:26.923Z,102590.28
2022-10-02T22:19:43.946Z,102590.38
2022-10-02T22:22:21.792Z,102588.38
2022-10-02T22:25:06.524Z,102588.38
2022-10-02T22:28:09.971Z,102587.38
2022-10-02T22:31:08.724Z,102584.31
2022-10-02T22:34:15.841Z,102586.44
2022-10-02T22:37:08.128Z,102589.09
2022-10-02T22:39:42.638Z,102591.50
2022-10-02T22:42:23.758Z,102596.50
2022-10-02T22:44:50.195Z,102597.09
2022-10-02T22:47:41.721Z,102602.56
2022-10-02T22:50:26.274Z,102607.06
2022-10-02T22:53:12.454Z,102605.75
2022-10-02T22:55:50.985Z,102610.00
2022-10-02T22:58:30.530Z,102608.72
2022-10-02T23:01:00.035Z,102601.56
2022-10-02T23:03:47.156Z,102602.91
2022-10-02T23:06:18.226Z,102598.47
2022-10-02T23:08:55.111Z,102597.19
2022-10-02T23:11:31.158Z,102602.19
2022-10-02T23:14:06.061Z,102608.25
2022-10-02T23:16:42.824Z,102596.88
2022-10-02T23:19:18.606Z,102604.47
2022-10-02T23:21:47.571Z,102603.22
2022-10-02T23:24:23.297Z,102605.59
2022-10-02T23:26:52.746Z,102606.16
2022-10-02T23:29:38.118Z,102605.19
2022-10-02T23:32:15.918Z,102607.28
2022-10-02T23:34:51.737Z,102615.59
2022-10-02T23:37:44.578Z,102614.56
2022-10-02T23:40:17.338Z,102612.84
2022-10-02T23:42:56.233Z,102612.53
2022-10-02T23:45:40.131Z,102609.75
2022-10-02T23:48:18.447Z,102608.47
2022-10-02T23:50:52.513Z,102609.00
2022-10-02T23:53:45.081Z,102605.44
2022-10-02T23:56:36.404Z,102611.69
2022-10-02T23:59:02.836Z,102606.28
